createdAt,value
2023-09-23T00:02:10.683Z,100231.16
2023-09-23T00:04:38.377Z,100236.00
2023-09-23T00:07:07.420Z,100234.88
2023-09-23T00:09:37.721Z,100235.03
2023-09-23T00:12:06.637Z,100236.31
2023-09-23T00:14:34.086Z,100239.84
2023-09-23T00:17:01.552Z,100231.50
2023-09-23T00:19:28.866Z,100243.25
2023-09-23T00:21:56.017Z,100241.00
2023-09-23T00:24:25.368Z,100241.31
2023-09-23T00:26:54.122Z,100244.06
2023-09-23T00:29:26.199Z,100234.09
2023-09-23T00:31:55.759Z,100240.81
2023-09-23T00:34:24.710Z,100244.84
2023-09-23T00:36:52.550Z,100239.03
2023-09-23T00:39:20.000Z,100235.31
2023-09-23T00:41:49.069Z,100236.75
2023-09-23T00:44:16.652Z,100234.03
2023-09-23T00:46:45.404Z,100238.84
2023-09-23T00:49:14.542Z,100240.63
2023-09-23T00:51:42.390Z,100237.22
2023-09-23T00:54:09.705Z,100235.00
2023-09-23T00:56:37.716Z,100235.75
2023-09-23T00:59:08.057Z,100236.41
2023-09-23T01:01:36.595Z,100240.09
2023-09-23T01:04:06.021Z,100243.47
2023-09-23T01:06:34.163Z,100239.13
2023-09-23T01:09:01.625Z,100236.56
2023-09-23T01:11:31.572Z,100231.56
2023-09-23T01:13:58.762Z,100229.47
2023-09-23T01:16:28.062Z,100221.72
2023-09-23T01:18:55.412Z,100232.00
2023-09-23T01:21:24.371Z,100233.25
2023-09-23T01:23:54.653Z,100232.28
2023-09-23T01:26:22.518Z,100235.00
2023-09-23T01:28:50.535Z,100240.16
2023-09-23T01:31:22.729Z,100242.72
2023-09-23T01:33:52.134Z,100239.03
2023-09-23T01:36:19.732Z,100238.72
2023-09-23T01:38:47.607Z,100232.63
2023-09-23T01:41:19.569Z,100234.38
2023-09-23T01:43:50.159Z,100238.06
2023-09-23T01:46:20.540Z,100235.00
2023-09-23T01:48:47.887Z,100242.09
2023-09-23T01:51:17.925Z,100237.38
2023-09-23T01:53:45.410Z,100238.00
2023-09-23T01:56:13.653Z,100238.16
2023-09-23T01:58:43.261Z,100245.38
2023-09-23T02:01:10.706Z,100242.16
2023-09-23T02:03:38.191Z,100239.56
2023-09-23T02:06:05.682Z,100244.09
2023-09-23T02:08:32.962Z,100246.94
2023-09-23T02:11:01.171Z,100247.59
2023-09-23T02:13:29.572Z,100248.56
2023-09-23T02:16:00.042Z,100240.19
2023-09-23T02:18:27.799Z,100253.38
2023-09-23T02:20:55.490Z,100259.31
2023-09-23T02:23:23.448Z,100257.88
2023-09-23T02:25:51.816Z,100251.59
2023-09-23T02:28:19.398Z,100245.41
2023-09-23T02:30:46.655Z,100254.88
2023-09-23T02:33:15.594Z,100253.09
2023-09-23T02:35:43.531Z,100249.91
2023-09-23T02:38:11.539Z,100248.44
2023-09-23T02:40:41.695Z,100253.56
2023-09-23T02:43:08.924Z,100251.66
2023-09-23T02:45:37.726Z,100256.81
2023-09-23T02:48:05.824Z,100259.03
2023-09-23T02:50:38.224Z,100257.41
2023-09-23T02:53:05.620Z,100254.47
2023-09-23T02:55:32.852Z,100249.66
2023-09-23T02:58:00.280Z,100250.75
2023-09-23T03:00:31.703Z,100248.03
2023-09-23T03:03:03.271Z,100248.03
2023-09-23T03:05:31.457Z,100249.94
2023-09-23T03:08:03.109Z,100250.91
2023-09-23T03:10:50.706Z,100248.94
2023-09-23T03:13:18.827Z,100252.97
2023-09-23T03:15:54.386Z,100236.84
2023-09-23T03:18:35.299Z,100256.66
2023-09-23T03:21:05.338Z,100259.38
2023-09-23T03:23:35.306Z,100252.25
2023-09-23T03:26:03.134Z,100255.97
2023-09-23T03:28:30.396Z,100262.88
2023-09-23T03:31:00.688Z,100263.06
2023-09-23T03:33:31.315Z,100264.28
2023-09-23T03:35:58.656Z,100264.28
2023-09-23T03:38:27.567Z,100264.44
2023-09-23T03:41:01.029Z,100267.66
2023-09-23T03:43:29.008Z,100270.91
2023-09-23T03:45:57.330Z,100271.13
2023-09-23T03:48:24.728Z,100276.97
2023-09-23T03:50:54.156Z,100266.41
2023-09-23T03:53:24.904Z,100271.66
2023-09-23T03:55:57.084Z,100276.97
2023-09-23T03:58:26.765Z,100279.59
2023-09-23T04:00:58.234Z,100277.88
2023-09-23T04:03:25.719Z,100281.00
2023-09-23T04:05:56.726Z,100279.72
2023-09-23T04:08:24.815Z,100277.31
2023-09-23T04:10:52.115Z,100279.94
2023-09-23T04:13:19.907Z,100290.09
2023-09-23T04:15:48.783Z,100279.84
2023-09-23T04:18:15.998Z,100279.88
2023-09-23T04:20:45.379Z,100293.56
2023-09-23T04:23:12.772Z,100289.38
2023-09-23T04:25:40.162Z,100291.34
2023-09-23T04:28:07.423Z,100294.09
2023-09-23T04:30:36.287Z,100298.44
2023-09-23T04:33:05.795Z,100290.59
2023-09-23T04:35:33.261Z,100294.44
2023-09-23T04:38:00.522Z,100286.75
2023-09-23T04:40:28.035Z,100292.69
2023-09-23T04:42:55.473Z,100292.53
2023-09-23T04:45:22.824Z,100293.84
2023-09-23T04:47:53.009Z,100300.75
2023-09-23T04:50:24.736Z,100308.78
2023-09-23T04:52:52.547Z,100302.16
2023-09-23T04:55:20.739Z,100312.28
2023-09-23T04:57:48.363Z,100301.19
2023-09-23T05:00:20.113Z,100299.03
2023-09-23T05:02:50.575Z,100308.19
2023-09-23T05:05:17.990Z,100308.38
2023-09-23T05:07:46.787Z,100304.94
2023-09-23T05:10:14.856Z,100309.94
2023-09-23T05:12:42.459Z,100298.75
2023-09-23T05:15:11.405Z,100306.94
2023-09-23T05:17:38.856Z,100315.22
2023-09-23T05:20:15.712Z,100306.22
2023-09-23T05:22:43.911Z,100307.50
2023-09-23T05:25:15.537Z,100320.28
2023-09-23T05:27:45.825Z,100323.44
2023-09-23T05:30:13.461Z,100320.78
2023-09-23T05:32:41.104Z,100320.47
2023-09-23T05:35:12.722Z,100320.53
2023-09-23T05:37:41.462Z,100323.38
2023-09-23T05:40:25.168Z,100316.22
2023-09-23T05:42:54.588Z,100325.28
2023-09-23T05:45:26.339Z,100321.34
2023-09-23T05:47:54.968Z,100324.13
2023-09-23T05:50:23.087Z,100331.00
2023-09-23T05:52:50.881Z,100327.84
2023-09-23T05:55:18.427Z,100334.44
2023-09-23T05:57:46.995Z,100336.63
2023-09-23T06:00:16.885Z,100336.66
2023-09-23T06:02:46.712Z,100335.78
2023-09-23T06:05:15.510Z,100339.03
2023-09-23T06:07:43.461Z,100340.25
2023-09-23T06:10:12.663Z,100335.94
2023-09-23T06:12:40.697Z,100332.47
2023-09-23T06:15:12.159Z,100332.94
2023-09-23T06:17:41.092Z,100323.16
2023-09-23T06:20:10.269Z,100335.81
2023-09-23T06:22:37.627Z,100341.78
2023-09-23T06:25:06.057Z,100336.25
2023-09-23T06:27:34.102Z,100335.72
2023-09-23T06:30:01.527Z,100333.94
2023-09-23T06:32:33.295Z,100335.59
2023-09-23T06:35:02.433Z,100329.47
2023-09-23T06:37:32.181Z,100332.13
2023-09-23T06:39:59.640Z,100335.03
2023-09-23T06:42:27.139Z,100331.03
2023-09-23T06:44:54.419Z,100329.25
2023-09-23T06:47:22.022Z,100336.28
2023-09-23T06:49:49.510Z,100336.72
2023-09-23T06:52:18.125Z,100327.97
2023-09-23T06:54:45.736Z,100329.78
2023-09-23T06:57:13.217Z,100325.81
2023-09-23T06:59:40.617Z,100330.59
2023-09-23T07:02:07.879Z,100331.00
2023-09-23T07:04:37.385Z,100329.63
2023-09-23T07:07:04.605Z,100333.63
2023-09-23T07:09:33.556Z,100327.22
2023-09-23T07:12:00.775Z,100330.41
2023-09-23T07:14:28.209Z,100332.16
2023-09-23T07:16:57.243Z,100324.72
2023-09-23T07:19:24.492Z,100329.91
2023-09-23T07:21:52.852Z,100336.69
2023-09-23T07:24:20.093Z,100333.84
2023-09-23T07:26:48.799Z,100318.19
2023-09-23T07:29:16.159Z,100339.00
2023-09-23T07:31:43.541Z,100333.38
2023-09-23T07:34:11.001Z,100336.19
2023-09-23T07:36:38.289Z,100333.56
2023-09-23T07:39:05.545Z,100340.91
2023-09-23T07:41:33.091Z,100333.59
2023-09-23T07:44:01.794Z,100329.91
2023-09-23T07:46:29.087Z,100333.72
2023-09-23T07:48:56.685Z,100328.81
2023-09-23T07:51:24.088Z,100328.97
2023-09-23T07:53:52.423Z,100336.59
2023-09-23T07:56:19.991Z,100338.66
2023-09-23T07:58:47.388Z,100340.00
2023-09-23T08:01:16.106Z,100338.03
2023-09-23T08:03:43.423Z,100326.63
2023-09-23T08:06:10.698Z,100332.91
2023-09-23T08:08:37.948Z,100337.69
2023-09-23T08:11:06.398Z,100328.25
2023-09-23T08:13:33.675Z,100338.44
2023-09-23T08:16:01.205Z,100329.34
2023-09-23T08:18:29.992Z,100321.44
2023-09-23T08:20:57.884Z,100335.06
2023-09-23T08:23:25.694Z,100336.59
2023-09-23T08:25:53.368Z,100343.03
2023-09-23T08:28:20.790Z,100334.19
2023-09-23T08:30:49.319Z,100325.47
2023-09-23T08:33:16.700Z,100324.25
2023-09-23T08:35:48.640Z,100328.34
2023-09-23T08:38:16.289Z,100324.44
2023-09-23T08:40:45.834Z,100321.38
2023-09-23T08:43:13.368Z,100329.22
2023-09-23T08:45:44.572Z,100318.72
2023-09-23T08:48:14.502Z,100310.75
2023-09-23T08:50:48.021Z,100307.91
2023-09-23T08:53:17.247Z,100299.50
2023-09-23T08:55:46.208Z,100322.97
2023-09-23T08:58:13.798Z,100318.41
2023-09-23T09:00:47.069Z,100295.53
2023-09-23T09:03:15.199Z,100297.34
2023-09-23T09:05:44.519Z,100309.88
2023-09-23T09:08:12.070Z,100307.84
2023-09-23T09:10:43.624Z,100292.59
2023-09-23T09:13:11.286Z,100293.50
2023-09-23T09:15:39.128Z,100297.63
2023-09-23T09:18:07.091Z,100294.53
2023-09-23T09:20:35.232Z,100298.63
2023-09-23T09:23:02.892Z,100299.78
2023-09-23T09:25:32.223Z,100304.75
2023-09-23T09:28:01.023Z,100294.59
2023-09-23T09:30:28.344Z,100299.41
2023-09-23T09:33:00.603Z,100294.63
2023-09-23T09:35:28.358Z,100300.41
2023-09-23T09:38:11.198Z,100295.75
2023-09-23T09:40:45.366Z,100304.97
2023-09-23T09:43:14.876Z,100305.19
2023-09-23T09:45:44.237Z,100294.06
2023-09-23T09:48:14.042Z,100280.94
2023-09-23T09:50:43.931Z,100294.59
2023-09-23T09:53:11.240Z,100298.28
2023-09-23T09:55:39.451Z,100296.63
2023-09-23T09:58:06.664Z,100303.13
2023-09-23T10:00:45.003Z,100302.31
2023-09-23T10:03:14.618Z,100288.44
2023-09-23T10:05:45.300Z,100299.34
2023-09-23T10:08:21.238Z,100304.44
2023-09-23T10:10:50.359Z,100302.56
2023-09-23T10:13:19.700Z,100297.09
2023-09-23T10:15:48.923Z,100294.69
2023-09-23T10:18:19.135Z,100293.81
2023-09-23T10:20:49.727Z,100288.78
2023-09-23T10:23:19.224Z,100310.16
2023-09-23T10:25:49.791Z,100296.38
2023-09-23T10:28:24.474Z,100306.84
2023-09-23T10:31:00.673Z,100295.69
2023-09-23T10:33:30.352Z,100300.44
2023-09-23T10:35:58.262Z,100286.13
2023-09-23T10:38:27.616Z,100296.84
2023-09-23T10:40:56.436Z,100284.53
2023-09-23T10:43:23.939Z,100289.06
2023-09-23T10:45:53.913Z,100273.44
2023-09-23T10:48:22.718Z,100283.50
2023-09-23T10:50:52.307Z,100288.25
2023-09-23T10:53:22.593Z,100284.03
2023-09-23T10:55:53.501Z,100269.53
2023-09-23T10:58:21.310Z,100276.38
2023-09-23T11:00:49.686Z,100273.34
2023-09-23T11:03:22.844Z,100276.63
2023-09-23T11:05:52.408Z,100256.22
2023-09-23T11:08:19.899Z,100268.94
2023-09-23T11:10:50.638Z,100281.19
2023-09-23T11:13:18.179Z,100279.59
2023-09-23T11:15:46.948Z,100271.50
2023-09-23T11:18:17.211Z,100265.28
2023-09-23T11:20:46.652Z,100268.94
2023-09-23T11:23:15.977Z,100266.31
2023-09-23T11:25:46.466Z,100279.28
2023-09-23T11:28:18.752Z,100262.63
2023-09-23T11:30:46.105Z,100256.75
2023-09-23T11:33:14.129Z,100259.78
2023-09-23T11:35:43.213Z,100265.19
2023-09-23T11:38:11.272Z,100261.69
2023-09-23T11:40:40.131Z,100250.38
2023-09-23T11:43:07.966Z,100256.66
2023-09-23T11:45:36.094Z,100234.03
2023-09-23T11:48:09.009Z,100249.13
2023-09-23T11:50:37.564Z,100243.00
2023-09-23T11:53:05.674Z,100245.47
2023-09-23T11:55:34.521Z,100250.13
2023-09-23T11:58:03.700Z,100251.34
2023-09-23T12:00:31.148Z,100248.03
2023-09-23T12:02:58.743Z,100253.28
2023-09-23T12:05:31.016Z,100249.53
2023-09-23T12:08:00.379Z,100258.97
2023-09-23T12:10:29.284Z,100247.06
2023-09-23T12:13:04.832Z,100257.69
2023-09-23T12:15:35.615Z,100243.38
2023-09-23T12:18:04.150Z,100261.34
2023-09-23T12:20:33.574Z,100245.78
2023-09-23T12:23:02.155Z,100256.91
2023-09-23T12:25:31.410Z,100225.22
2023-09-23T12:27:59.016Z,100261.66
2023-09-23T12:30:26.361Z,100240.91
2023-09-23T12:32:55.266Z,100258.06
2023-09-23T12:35:22.575Z,100251.94
2023-09-23T12:37:50.072Z,100244.06
2023-09-23T12:40:17.545Z,100243.88
2023-09-23T12:42:44.918Z,100233.69
2023-09-23T12:45:13.307Z,100230.50
2023-09-23T12:47:56.110Z,100237.91
2023-09-23T12:50:26.872Z,100234.78
2023-09-23T12:52:55.110Z,100214.56
2023-09-23T12:55:22.744Z,100213.47
2023-09-23T12:57:50.130Z,100218.09
2023-09-23T13:00:18.007Z,100227.06
2023-09-23T13:02:45.639Z,100218.72
2023-09-23T13:05:12.979Z,100201.41
2023-09-23T13:07:41.642Z,100212.03
2023-09-23T13:10:16.091Z,100215.38
2023-09-23T13:12:45.438Z,100213.09
2023-09-23T13:15:13.599Z,100227.13
2023-09-23T13:17:41.041Z,100215.84
2023-09-23T13:20:09.316Z,100214.56
2023-09-23T13:22:37.100Z,100206.25
2023-09-23T13:25:06.995Z,100200.78
2023-09-23T13:27:34.522Z,100211.28
2023-09-23T13:30:01.993Z,100202.50
2023-09-23T13:32:32.460Z,100201.38
2023-09-23T13:35:00.039Z,100210.53
2023-09-23T13:37:27.321Z,100204.38
2023-09-23T13:39:56.046Z,100200.63
2023-09-23T13:42:24.718Z,100199.59
2023-09-23T13:44:51.971Z,100194.47
2023-09-23T13:47:19.346Z,100199.34
2023-09-23T13:49:46.640Z,100193.75
2023-09-23T13:52:13.991Z,100201.41
2023-09-23T13:54:41.342Z,100191.06
2023-09-23T13:57:08.556Z,100204.31
2023-09-23T13:59:37.173Z,100196.19
2023-09-23T14:02:06.033Z,100195.91
2023-09-23T14:04:33.336Z,100192.88
2023-09-23T14:07:00.611Z,100195.81
2023-09-23T14:09:29.243Z,100198.78
2023-09-23T14:11:57.482Z,100187.88
2023-09-23T14:14:24.840Z,100188.69
2023-09-23T14:16:53.543Z,100192.09
2023-09-23T14:19:21.332Z,100187.44
2023-09-23T14:21:48.620Z,100187.56
2023-09-23T14:24:15.830Z,100188.09
2023-09-23T14:26:43.397Z,100188.63
2023-09-23T14:29:10.839Z,100187.63
2023-09-23T14:31:38.149Z,100191.13
2023-09-23T14:34:08.175Z,100191.00
2023-09-23T14:36:35.412Z,100189.06
2023-09-23T14:39:05.068Z,100187.53
2023-09-23T14:41:36.379Z,100181.63
2023-09-23T14:44:04.490Z,100191.63
2023-09-23T14:46:32.285Z,100184.66
2023-09-23T14:48:59.699Z,100185.00
2023-09-23T14:51:28.486Z,100179.44
2023-09-23T14:53:55.739Z,100188.50
2023-09-23T14:56:23.007Z,100184.72
2023-09-23T14:58:50.895Z,100178.34
2023-09-23T15:01:18.357Z,100180.81
2023-09-23T15:03:45.965Z,100177.84
2023-09-23T15:06:13.421Z,100188.97
2023-09-23T15:08:57.740Z,100189.16
2023-09-23T15:11:29.192Z,100191.84
2023-09-23T15:13:57.213Z,100184.91
2023-09-23T15:16:24.669Z,100182.13
2023-09-23T15:18:52.245Z,100180.44
2023-09-23T15:21:19.526Z,100186.31
2023-09-23T15:23:48.306Z,100180.16
2023-09-23T15:26:15.751Z,100180.81
2023-09-23T15:28:43.025Z,100187.09
2023-09-23T15:31:10.816Z,100174.34
2023-09-23T15:33:38.221Z,100174.81
2023-09-23T15:36:06.067Z,100176.88
2023-09-23T15:38:33.736Z,100178.56
2023-09-23T15:41:02.507Z,100177.63
2023-09-23T15:43:29.926Z,100163.63
2023-09-23T15:46:02.947Z,100178.91
2023-09-23T15:48:30.466Z,100176.00
2023-09-23T15:51:08.130Z,100182.09
2023-09-23T15:53:35.423Z,100180.41
2023-09-23T15:56:08.486Z,100179.03
2023-09-23T15:58:36.122Z,100177.94
2023-09-23T16:01:05.517Z,100170.63
2023-09-23T16:03:33.558Z,100168.91
2023-09-23T16:06:01.297Z,100177.81
2023-09-23T16:08:28.615Z,100167.00
2023-09-23T16:10:56.129Z,100161.84
2023-09-23T16:13:25.197Z,100166.25
2023-09-23T16:15:52.523Z,100175.06
2023-09-23T16:18:22.982Z,100175.88
2023-09-23T16:20:51.857Z,100177.88
2023-09-23T16:23:19.908Z,100174.69
2023-09-23T16:25:47.417Z,100169.91
2023-09-23T16:28:14.866Z,100168.13
2023-09-23T16:30:43.605Z,100167.13
2023-09-23T16:33:12.151Z,100162.34
2023-09-23T16:35:39.635Z,100172.16
2023-09-23T16:38:08.082Z,100167.16
2023-09-23T16:40:36.046Z,100173.38
2023-09-23T16:43:03.505Z,100161.16
2023-09-23T16:45:30.825Z,100169.38
2023-09-23T16:47:59.758Z,100174.41
2023-09-23T16:50:27.332Z,100178.78
2023-09-23T16:52:54.919Z,100175.38
2023-09-23T16:55:22.225Z,100165.78
2023-09-23T16:57:49.409Z,100178.38
2023-09-23T17:00:18.365Z,100174.78
2023-09-23T17:02:46.121Z,100178.38
2023-09-23T17:05:15.421Z,100174.19
2023-09-23T17:07:42.818Z,100169.00
2023-09-23T17:10:10.832Z,100172.19
2023-09-23T17:12:38.425Z,100170.19
2023-09-23T17:15:06.927Z,100177.19
2023-09-23T17:17:34.943Z,100170.19
2023-09-23T17:20:02.683Z,100168.38
2023-09-23T17:22:33.128Z,100169.78
2023-09-23T17:25:01.304Z,100162.97
2023-09-23T17:27:30.903Z,100165.56
2023-09-23T17:29:58.192Z,100168.00
2023-09-23T17:32:25.522Z,100166.78
2023-09-23T17:34:52.905Z,100157.59
2023-09-23T17:37:21.201Z,100163.97
2023-09-23T17:39:49.799Z,100169.97
2023-09-23T17:42:17.140Z,100167.19
2023-09-23T17:44:46.778Z,100161.97
2023-09-23T17:47:14.663Z,100161.56
2023-09-23T17:49:41.925Z,100158.13
2023-09-23T17:52:09.525Z,100167.03
2023-09-23T17:54:36.922Z,100156.16
2023-09-23T17:57:05.562Z,100154.97
2023-09-23T17:59:32.947Z,100151.56
2023-09-23T18:02:00.377Z,100150.00
2023-09-23T18:04:27.799Z,100156.22
2023-09-23T18:06:55.209Z,100158.59
2023-09-23T18:09:22.597Z,100162.97
2023-09-23T18:11:50.977Z,100151.47
2023-09-23T18:14:19.723Z,100164.84
2023-09-23T18:16:47.215Z,100155.09
2023-09-23T18:19:14.522Z,100154.50
2023-09-23T18:21:43.507Z,100153.13
2023-09-23T18:24:11.586Z,100156.91
2023-09-23T18:26:39.123Z,100158.91
2023-09-23T18:29:06.600Z,100153.72
2023-09-23T18:31:35.272Z,100152.50
2023-09-23T18:34:02.711Z,100153.69
2023-09-23T18:36:29.977Z,100160.88
2023-09-23T18:38:57.281Z,100160.44
2023-09-23T18:41:24.519Z,100147.47
2023-09-23T18:43:51.781Z,100154.25
2023-09-23T18:46:20.453Z,100155.25
2023-09-23T18:48:50.148Z,100163.41
2023-09-23T18:51:17.413Z,100170.34
2023-09-23T18:53:44.714Z,100170.56
2023-09-23T18:56:12.050Z,100162.53
2023-09-23T18:58:39.469Z,100160.94
2023-09-23T19:01:06.790Z,100165.31
2023-09-23T19:03:34.363Z,100156.69
2023-09-23T19:06:03.233Z,100166.31
2023-09-23T19:08:30.963Z,100166.94
2023-09-23T19:10:58.215Z,100165.94
2023-09-23T19:13:25.489Z,100164.94
2023-09-23T19:15:52.768Z,100163.94
2023-09-23T19:18:20.333Z,100168.75
2023-09-23T19:20:47.844Z,100171.34
2023-09-23T19:23:16.621Z,100165.16
2023-09-23T19:25:43.950Z,100168.75
2023-09-23T19:28:11.295Z,100167.78
2023-09-23T19:30:38.952Z,100164.03
2023-09-23T19:33:06.501Z,100161.03
2023-09-23T19:35:36.810Z,100156.84
2023-09-23T19:38:04.781Z,100166.84
2023-09-23T19:40:34.982Z,100166.84
2023-09-23T19:43:02.471Z,100158.44
2023-09-23T19:45:29.861Z,100155.25
2023-09-23T19:47:59.365Z,100162.03
2023-09-23T19:50:26.897Z,100164.84
2023-09-23T19:52:54.115Z,100168.44
2023-09-23T19:55:22.455Z,100164.81
2023-09-23T19:57:51.134Z,100153.44
2023-09-23T20:00:18.851Z,100168.59
2023-09-23T20:02:46.142Z,100163.41
2023-09-23T20:05:13.639Z,100160.19
2023-09-23T20:07:41.111Z,100163.38
2023-09-23T20:10:11.635Z,100160.53
2023-09-23T20:12:39.007Z,100157.94
2023-09-23T20:15:09.158Z,100147.13
2023-09-23T20:17:37.254Z,100155.13
2023-09-23T20:20:11.443Z,100145.91
2023-09-23T20:22:38.801Z,100149.84
2023-09-23T20:25:06.878Z,100147.66
2023-09-23T20:27:34.504Z,100149.44
2023-09-23T20:30:07.171Z,100150.59
2023-09-23T20:32:39.804Z,100149.78
2023-09-23T20:35:12.235Z,100157.34
2023-09-23T20:37:40.177Z,100145.34
2023-09-23T20:40:09.868Z,100142.13
2023-09-23T20:42:37.403Z,100145.16
2023-09-23T20:45:05.844Z,100139.34
2023-09-23T20:47:34.990Z,100144.53
2023-09-23T20:50:05.704Z,100136.34
2023-09-23T20:52:34.386Z,100141.31
2023-09-23T20:55:01.745Z,100144.28
2023-09-23T20:57:31.935Z,100136.28
2023-09-23T20:59:59.174Z,100135.66
2023-09-23T21:02:26.657Z,100139.63
2023-09-23T21:04:54.015Z,100136.44
2023-09-23T21:07:22.569Z,100134.03
2023-09-23T21:09:51.269Z,100138.22
2023-09-23T21:12:18.608Z,100138.63
2023-09-23T21:14:45.953Z,100129.88
2023-09-23T21:17:13.375Z,100135.66
2023-09-23T21:19:41.031Z,100131.84
2023-09-23T21:22:08.614Z,100134.03
2023-09-23T21:24:37.279Z,100133.97
2023-09-23T21:27:04.549Z,100139.91
2023-09-23T21:29:31.942Z,100136.69
2023-09-23T21:31:59.515Z,100143.84
2023-09-23T21:34:27.125Z,100141.63
2023-09-23T21:36:54.535Z,100131.44
2023-09-23T21:39:21.946Z,100136.22
2023-09-23T21:41:51.670Z,100151.50
2023-09-23T21:44:19.298Z,100143.72
2023-09-23T21:46:46.626Z,100120.19
2023-09-23T21:49:13.840Z,100129.91
2023-09-23T21:51:41.126Z,100134.09
2023-09-23T21:54:10.794Z,100137.25
2023-09-23T21:56:44.368Z,100125.50
2023-09-23T21:59:13.955Z,100124.88
2023-09-23T22:01:41.601Z,100136.03
2023-09-23T22:04:09.131Z,100128.81
2023-09-23T22:06:37.196Z,100118.34
2023-09-23T22:09:04.963Z,100127.47
2023-09-23T22:11:32.754Z,100133.03
2023-09-23T22:14:00.989Z,100127.59
2023-09-23T22:16:29.546Z,100137.75
2023-09-23T22:18:57.540Z,100131.56
2023-09-23T22:21:24.854Z,100132.53
2023-09-23T22:23:54.978Z,100129.69
2023-09-23T22:26:22.359Z,100121.03
2023-09-23T22:28:50.053Z,100135.16
2023-09-23T22:31:17.409Z,100128.13
2023-09-23T22:33:46.242Z,100122.69
2023-09-23T22:36:13.771Z,100134.00
2023-09-23T22:38:41.019Z,100122.44
2023-09-23T22:41:08.257Z,100129.22
2023-09-23T22:43:35.486Z,100131.78
2023-09-23T22:46:02.834Z,100128.94
2023-09-23T22:48:30.339Z,100129.28
2023-09-23T22:50:59.383Z,100131.63
2023-09-23T22:53:27.407Z,100139.56
2023-09-23T22:55:56.315Z,100135.91
2023-09-23T22:58:23.683Z,100142.44
2023-09-23T23:00:51.687Z,100141.09
2023-09-23T23:03:20.210Z,100136.28
2023-09-23T23:05:47.742Z,100129.69
2023-09-23T23:08:16.675Z,100134.59
2023-09-23T23:10:44.118Z,100132.44
2023-09-23T23:13:11.389Z,100138.63
2023-09-23T23:15:40.412Z,100123.44
2023-09-23T23:18:08.324Z,100129.78
2023-09-23T23:20:36.065Z,100132.09
2023-09-23T23:23:04.161Z,100133.63
2023-09-23T23:25:37.212Z,100130.28
2023-09-23T23:28:05.637Z,100127.50
2023-09-23T23:30:33.299Z,100129.91
2023-09-23T23:33:00.816Z,100125.97
2023-09-23T23:35:29.186Z,100129.16
2023-09-23T23:37:56.608Z,100121.09
2023-09-23T23:40:24.795Z,100116.69
2023-09-23T23:42:53.609Z,100124.47
2023-09-23T23:45:22.410Z,100122.63
2023-09-23T23:47:54.594Z,100128.72
2023-09-23T23:50:24.018Z,100122.66
2023-09-23T23:52:51.438Z,100121.66
2023-09-23T23:55:19.609Z,100134.38
2023-09-23T23:57:47.245Z,100141.31
